Time;durP1;ratioP1;P1;durP2;ratioP2;P2;SDS_P1;SDS_P2;PMS_P1;PMS_P2;Temp;Humidity;BMP_temperature;BMP_pressure;BME280_temperature;BME280_humidity;BME280_pressure;Samples;Min_cycle;Max_cycle;Signal;HPM_P1;HPM_P2
2022/08/30 00:03:00;;;;;;;;;;;;;;;22.40;39.39;100859.91;4979938;28;11220;-74
2022/08/30 00:05:29;;;;;;;;;;;;;;;22.41;39.38;100856.47;4979319;28;7237;-74
2022/08/30 00:07:56;;;;;;;;;;;;;;;22.44;39.67;100859.09;4981919;28;6788;-74
2022/08/30 00:10:23;;;;;;;;;;;;;;;22.44;39.43;100853.88;4981511;28;6978;-74
2022/08/30 00:12:50;;;;;;;;;;;;;;;22.46;39.56;100857.34;4981559;28;6947;-73
2022/08/30 00:15:18;;;;;;;;;;;;;;;22.45;39.75;100856.50;4959512;28;6911;-74
2022/08/30 00:17:44;;;;;;;;;;;;;;;22.44;39.52;100851.25;4977615;28;6884;-74
2022/08/30 00:20:15;;;;;;;;;;;;;;;22.44;39.51;100864.31;4981158;28;6945;-74
2022/08/30 00:22:41;;;;;;;;;;;;;;;22.41;39.66;100866.91;4967013;28;6789;-73
2022/08/30 00:25:08;;;;;;;;;;;;;;;22.37;40.04;100863.41;4967586;28;6957;-73
2022/08/30 00:27:34;;;;;;;;;;;;;;;22.34;39.85;100876.41;4977988;28;6950;-73
2022/08/30 00:29:59;;;;;;;;;;;;;;;22.31;39.93;100876.41;4987700;28;7137;-73
2022/08/30 00:32:26;;;;;;;;;;;;;;;22.28;40.11;100866.81;4982377;28;6926;-74
2022/08/30 00:34:53;;;;;;;;;;;;;;;22.24;40.11;100862.44;4983138;28;6796;-74
2022/08/30 00:37:20;;;;;;;;;;;;;;;22.22;40.40;100865.91;4982753;28;6804;-73
2022/08/30 00:39:46;;;;;;;;;;;;;;;22.18;40.22;100865.00;4936686;28;7024;-74
2022/08/30 00:42:14;;;;;;;;;;;;;;;22.12;40.54;100868.44;4966707;28;7001;-73
2022/08/30 00:44:41;;;;;;;;;;;;;;;22.10;40.51;100872.78;4978862;28;7836;-74
2022/08/30 00:47:07;;;;;;;;;;;;;;;22.06;40.40;100876.22;4965493;28;8284;-74
2022/08/30 00:49:35;;;;;;;;;;;;;;;22.03;40.98;100870.97;4982754;28;7824;-74
2022/08/30 00:52:03;;;;;;;;;;;;;;;21.99;40.94;100874.44;4980027;28;6868;-74
2022/08/30 00:54:32;;;;;;;;;;;;;;;21.95;40.79;100876.16;4982139;28;7270;-73
2022/08/30 00:56:58;;;;;;;;;;;;;;;21.90;41.11;100878.72;4983456;28;6792;-73
2022/08/30 00:59:26;;;;;;;;;;;;;;;21.88;41.05;100874.34;4983521;28;7300;-74
2022/08/30 01:01:52;;;;;;;;;;;;;;;21.82;41.37;100872.56;4981272;28;6873;-74
2022/08/30 01:04:22;;;;;;;;;;;;;;;21.79;41.29;100872.53;4986803;28;6776;-74
2022/08/30 01:06:48;;;;;;;;;;;;;;;21.76;41.72;100864.66;4979527;28;6879;-74
2022/08/30 01:09:15;;;;;;;;;;;;;;;21.71;41.75;100867.22;4981900;28;7209;-74
2022/08/30 01:11:46;;;;;;;;;;;;;;;21.65;41.75;100873.22;4963719;28;6824;-74
2022/08/30 01:14:13;;;;;;;;;;;;;;;21.59;41.88;100888.84;4981482;28;7195;-74
2022/08/30 01:16:42;;;;;;;;;;;;;;;21.51;41.93;100885.28;4960716;28;8013;-74
2022/08/30 01:19:33;;;;;;;;;;;;;;;21.40;42.17;100884.28;4960645;28;7648;-74
2022/08/30 01:22:16;;;;;;;;;;;;;;;21.28;42.97;100882.41;4987088;28;6828;-73
2022/08/30 01:24:46;;;;;;;;;;;;;;;21.22;43.23;100889.28;4985951;28;7014;-74
2022/08/30 01:27:15;;;;;;;;;;;;;;;21.18;43.50;100884.03;4984564;28;6808;-74
2022/08/30 01:29:43;;;;;;;;;;;;;;;21.15;42.93;100890.09;4982283;28;7320;-73
2022/08/30 01:32:24;;;;;;;;;;;;;;;21.13;43.62;100889.19;4982455;28;6804;-74
2022/08/30 01:34:50;;;;;;;;;;;;;;;21.13;43.76;100880.50;4971096;28;7141;-74
2022/08/30 01:37:29;;;;;;;;;;;;;;;21.11;43.97;100885.69;4987880;28;6964;-74
2022/08/30 01:39:55;;;;;;;;;;;;;;;21.09;44.19;100882.19;4980127;28;8042;-74
2022/08/30 01:42:21;;;;;;;;;;;;;;;21.06;44.24;100887.38;4979531;28;7285;-74
2022/08/30 01:44:47;;;;;;;;;;;;;;;21.05;43.99;100888.19;4981777;28;6868;-74
2022/08/30 01:47:17;;;;;;;;;;;;;;;21.03;43.60;100883.00;4980031;28;9248;-74
2022/08/30 01:49:44;;;;;;;;;;;;;;;21.01;43.90;100879.50;4985733;28;8994;-74
2022/08/30 01:52:12;;;;;;;;;;;;;;;20.99;43.92;100875.13;4987400;28;6951;-74
2022/08/30 01:54:41;;;;;;;;;;;;;;;20.94;43.94;100881.13;4973307;28;6984;-74
2022/08/30 01:57:10;;;;;;;;;;;;;;;20.91;44.17;100875.88;4968802;28;6796;-74
2022/08/30 01:59:37;;;;;;;;;;;;;;;20.88;44.17;100878.47;4967601;28;6995;-74
2022/08/30 02:02:04;;;;;;;;;;;;;;;20.87;44.35;100883.66;4965756;28;6983;-74
2022/08/30 02:04:30;;;;;;;;;;;;;;;20.82;44.37;100880.97;4984448;28;6796;-73
2022/08/30 02:06:55;;;;;;;;;;;;;;;20.81;44.46;100890.50;4979069;28;6768;-74
2022/08/30 02:09:21;;;;;;;;;;;;;;;20.78;44.44;100886.97;4983296;28;6756;-74
2022/08/30 02:11:47;;;;;;;;;;;;;;;20.75;44.55;100886.91;4981486;28;6977;-74
2022/08/30 02:14:14;;;;;;;;;;;;;;;20.72;44.59;100881.69;4978691;28;7005;-74
2022/08/30 02:16:40;;;;;;;;;;;;;;;20.67;44.60;100882.50;4961946;28;6916;-74
2022/08/30 02:19:06;;;;;;;;;;;;;;;20.64;44.62;100882.44;4978641;28;6796;-74
2022/08/30 02:21:32;;;;;;;;;;;;;;;20.62;44.80;100885.91;4964065;28;6800;-74
2022/08/30 02:23:58;;;;;;;;;;;;;;;20.59;45.08;100881.50;4985335;28;6883;-74
2022/08/30 02:26:25;;;;;;;;;;;;;;;20.56;45.24;100878.84;4982938;28;6792;-74
2022/08/30 02:28:52;;;;;;;;;;;;;;;20.51;45.18;100883.97;4970993;28;6836;-74
2022/08/30 02:31:20;;;;;;;;;;;;;;;20.49;45.81;100877.03;4979971;28;6804;-74
2022/08/30 02:33:46;;;;;;;;;;;;;;;20.44;45.67;100870.88;4982401;28;6800;-74
2022/08/30 02:36:12;;;;;;;;;;;;;;;20.43;46.08;100869.13;4965640;28;6883;-74
2022/08/30 02:38:38;;;;;;;;;;;;;;;20.40;45.91;100862.13;4980726;28;7014;-74
2022/08/30 02:41:04;;;;;;;;;;;;;;;20.38;45.85;100861.25;4980143;28;6950;-74
2022/08/30 02:43:30;;;;;;;;;;;;;;;20.35;45.97;100862.06;4986129;28;6812;-74
2022/08/30 02:45:56;;;;;;;;;;;;;;;20.32;45.88;100859.44;4986553;28;6927;-74
2022/08/30 02:48:22;;;;;;;;;;;;;;;20.29;46.43;100846.38;4985071;28;6945;-74
2022/08/30 02:50:51;;;;;;;;;;;;;;;20.25;46.47;100842.84;4970233;28;6940;-74
2022/08/30 02:53:17;;;;;;;;;;;;;;;20.22;46.31;100854.94;4979524;28;7235;-74
2022/08/30 02:55:43;;;;;;;;;;;;;;;20.17;46.57;100841.84;4984798;28;6788;-74
2022/08/30 02:58:09;;;;;;;;;;;;;;;20.15;46.69;100846.16;4981528;28;8249;-74
2022/08/30 03:00:36;;;;;;;;;;;;;;;20.14;46.64;100848.72;4984024;28;6819;-74
2022/08/30 03:03:02;;;;;;;;;;;;;;;20.10;47.07;100858.22;4984542;28;6796;-74
2022/08/30 03:05:30;;;;;;;;;;;;;;;20.05;46.99;100842.53;4980631;28;6955;-74
2022/08/30 03:07:56;;;;;;;;;;;;;;;20.04;47.14;100850.28;4980721;28;7228;-74
2022/08/30 03:10:22;;;;;;;;;;;;;;;20.00;46.69;100856.31;4982055;28;8485;-74
2022/08/30 03:12:47;;;;;;;;;;;;;;;19.97;47.12;100857.13;4981249;28;7650;-74
2022/08/30 03:15:15;;;;;;;;;;;;;;;19.93;47.00;100853.59;4963835;28;7567;-74
2022/08/30 03:17:41;;;;;;;;;;;;;;;19.89;47.60;100851.78;4985143;28;7247;-74
2022/08/30 03:20:09;;;;;;;;;;;;;;;19.88;47.38;100847.44;4967476;28;6974;-74
2022/08/30 03:22:34;;;;;;;;;;;;;;;19.87;47.10;100856.09;4966447;28;6939;-74
2022/08/30 03:25:00;;;;;;;;;;;;;;;19.85;47.61;100861.25;4976575;28;6987;-74
2022/08/30 03:27:28;;;;;;;;;;;;;;;19.85;47.68;100860.41;4972669;28;6831;-74
2022/08/30 03:29:55;;;;;;;;;;;;;;;19.83;47.27;100856.88;4958463;28;7003;-74
2022/08/30 03:32:21;;;;;;;;;;;;;;;19.85;48.20;100861.25;4964152;28;6788;-74
2022/08/30 03:34:47;;;;;;;;;;;;;;;19.87;47.58;100855.19;4985248;28;7273;-74
2022/08/30 03:37:13;;;;;;;;;;;;;;;19.91;48.02;100857.00;4977910;28;6784;-74
2022/08/30 03:39:39;;;;;;;;;;;;;;;19.95;47.78;100857.13;4957957;28;6962;-74
2022/08/30 03:42:05;;;;;;;;;;;;;;;20.00;47.81;100849.41;4977762;28;7097;-75
2022/08/30 03:44:31;;;;;;;;;;;;;;;20.05;47.80;100852.06;4983593;28;7177;-74
2022/08/30 03:46:57;;;;;;;;;;;;;;;20.10;48.00;100840.88;4982351;28;7228;-74
2022/08/30 03:49:23;;;;;;;;;;;;;;;20.18;48.25;100845.31;4956379;28;7332;-74
2022/08/30 03:51:49;;;;;;;;;;;;;;;20.23;48.32;100841.97;4965856;28;7054;-74
2022/08/30 03:54:16;;;;;;;;;;;;;;;20.29;47.86;100845.47;4982212;28;6880;-74
2022/08/30 03:56:41;;;;;;;;;;;;;;;20.35;48.01;100850.78;4961492;28;7180;-74
2022/08/30 03:59:08;;;;;;;;;;;;;;;20.39;48.22;100853.47;4983328;28;6795;-74
2022/08/30 04:01:33;;;;;;;;;;;;;;;20.44;48.05;100856.13;4972621;28;7120;-74
2022/08/30 04:03:59;;;;;;;;;;;;;;;20.49;48.19;100849.25;4970985;28;7125;-74
2022/08/30 04:06:26;;;;;;;;;;;;;;;20.51;47.98;100846.69;4964044;28;7005;-74
2022/08/30 04:08:51;;;;;;;;;;;;;;;20.57;47.61;100848.50;4986409;28;7437;-74
2022/08/30 04:11:19;;;;;;;;;;;;;;;20.57;47.78;100846.78;4974050;28;6977;-74
2022/08/30 04:13:45;;;;;;;;;;;;;;;20.57;48.01;100846.78;4965461;28;6955;-74
2022/08/30 04:16:11;;;;;;;;;;;;;;;20.57;47.70;100849.38;4990182;28;7082;-74
2022/08/30 04:18:37;;;;;;;;;;;;;;;20.56;47.75;100850.19;4979179;28;7240;-74
2022/08/30 04:21:04;;;;;;;;;;;;;;;20.56;48.21;100863.22;4981292;28;6966;-74
2022/08/30 04:23:29;;;;;;;;;;;;;;;20.56;48.16;100854.56;4980308;28;6902;-74
2022/08/30 04:25:55;;;;;;;;;;;;;;;20.54;48.22;100863.22;4983260;28;7561;-74
2022/08/30 04:28:22;;;;;;;;;;;;;;;20.54;48.43;100857.13;4982323;28;6772;-74
2022/08/30 04:30:48;;;;;;;;;;;;;;;20.52;48.56;100858.84;4981061;28;7242;-74
2022/08/30 04:33:15;;;;;;;;;;;;;;;20.49;48.62;100851.84;4984274;28;6779;-74
2022/08/30 04:35:44;;;;;;;;;;;;;;;20.47;48.56;100857.88;4984173;28;7156;-74
2022/08/30 04:38:12;;;;;;;;;;;;;;;20.45;48.71;100865.69;4982366;28;6811;-74
2022/08/30 04:40:42;;;;;;;;;;;;;;;20.43;49.16;100859.59;4966723;28;6863;-74
2022/08/30 04:43:10;;;;;;;;;;;;;;;20.44;48.72;100870.88;4978319;28;7670;-74
2022/08/30 04:45:38;;;;;;;;;;;;;;;20.45;49.08;100867.41;4984264;28;7264;-74
2022/08/30 04:48:06;;;;;;;;;;;;;;;20.48;48.86;100872.69;4977421;28;7000;-74
2022/08/30 04:50:33;;;;;;;;;;;;;;;20.52;49.13;100877.06;4981475;28;6935;-74
2022/08/30 04:52:58;;;;;;;;;;;;;;;20.57;48.93;100878.03;4970933;28;6954;-74
2022/08/30 04:55:24;;;;;;;;;;;;;;;20.60;49.40;100884.97;4964722;28;6934;-74
2022/08/30 04:57:51;;;;;;;;;;;;;;;20.63;49.01;100880.69;4977741;28;6991;-74
2022/08/30 05:00:21;;;;;;;;;;;;;;;20.68;48.77;100892.06;4967913;28;10210;-74
2022/08/30 05:02:48;;;;;;;;;;;;;;;20.71;48.87;100886.00;4986648;28;6800;-74
2022/08/30 05:07:58;;;;;;;;;;;;;;;20.76;48.44;100889.56;4983166;28;7181;-74
2022/08/30 05:10:26;;;;;;;;;;;;;;;20.78;48.74;100887.84;4971645;28;7529;-74
2022/08/30 05:12:53;;;;;;;;;;;;;;;20.81;48.66;100893.09;4981361;28;7070;-74
2022/08/30 05:15:21;;;;;;;;;;;;;;;20.84;48.64;100886.22;4982006;28;6808;-74
2022/08/30 05:17:47;;;;;;;;;;;;;;;20.85;48.53;100893.19;4983238;28;7214;-74
2022/08/30 05:20:14;;;;;;;;;;;;;;;20.83;48.97;100884.47;4948117;28;7551;-74
2022/08/30 05:22:48;;;;;;;;;;;;;;;20.78;49.00;100893.03;4979238;28;6984;-74
2022/08/30 05:25:25;;;;;;;;;;;;;;;20.75;48.80;100892.13;4988166;28;7282;-74
2022/08/30 05:27:51;;;;;;;;;;;;;;;20.72;49.06;100892.09;4985671;28;7053;-74
2022/08/30 05:30:18;;;;;;;;;;;;;;;20.71;49.30;100898.16;4986166;28;6792;-74
2022/08/30 05:32:44;;;;;;;;;;;;;;;20.67;48.92;100902.44;4990793;28;7231;-74
2022/08/30 05:35:12;;;;;;;;;;;;;;;20.66;48.89;100904.16;4990926;28;7220;-74
2022/08/30 05:37:39;;;;;;;;;;;;;;;20.65;49.31;100901.56;4970568;28;7102;-74
2022/08/30 05:40:06;;;;;;;;;;;;;;;20.67;49.53;100902.44;4982935;28;7253;-73
2022/08/30 05:42:31;;;;;;;;;;;;;;;20.67;49.18;100897.25;4984345;28;6791;-73
2022/08/30 05:44:57;;;;;;;;;;;;;;;20.70;49.70;100901.63;4993302;28;6776;-73
2022/08/30 05:47:23;;;;;;;;;;;;;;;20.74;49.61;100898.19;4991602;28;6822;-73
2022/08/30 05:49:48;;;;;;;;;;;;;;;20.80;49.88;100898.28;4993218;28;6780;-73
2022/08/30 05:52:16;;;;;;;;;;;;;;;20.88;50.08;100899.31;4971503;28;6951;-73
2022/08/30 05:54:43;;;;;;;;;;;;;;;20.93;49.71;100896.75;4995367;28;6928;-73
2022/08/30 05:57:10;;;;;;;;;;;;;;;20.97;49.85;100895.94;4988017;28;6784;-73
2022/08/30 05:59:36;;;;;;;;;;;;;;;21.01;49.84;100902.06;4988815;28;6788;-73
2022/08/30 06:02:03;;;;;;;;;;;;;;;21.07;49.83;100899.53;4965797;28;6995;-73
2022/08/30 06:04:29;;;;;;;;;;;;;;;21.13;49.74;100899.59;4970079;28;7103;-73
2022/08/30 06:06:55;;;;;;;;;;;;;;;21.21;50.21;100903.19;4972798;28;7195;-76
2022/08/30 06:09:21;;;;;;;;;;;;;;;21.30;49.95;100911.97;4987958;28;6856;-76
2022/08/30 06:11:47;;;;;;;;;;;;;;;21.38;50.06;100910.34;4983638;28;6804;-76
2022/08/30 06:14:14;;;;;;;;;;;;;;;21.47;49.83;100910.44;4986001;28;6919;-76
2022/08/30 06:16:42;;;;;;;;;;;;;;;21.59;49.95;100920.13;4986809;28;6983;-76
2022/08/30 06:19:09;;;;;;;;;;;;;;;21.70;49.81;100911.56;4990855;28;6968;-76
2022/08/30 06:21:36;;;;;;;;;;;;;;;21.80;49.80;100908.19;4987846;28;6814;-77
2022/08/30 06:24:05;;;;;;;;;;;;;;;21.96;50.06;100914.44;4984563;28;7158;-76
2022/08/30 06:26:35;;;;;;;;;;;;;;;22.13;49.90;100911.09;4965764;28;6816;-77
2022/08/30 06:29:01;;;;;;;;;;;;;;;22.30;49.63;100896.41;4985885;28;6808;-75
2022/08/30 06:31:27;;;;;;;;;;;;;;;22.50;49.55;100898.31;4984430;28;7034;-76
2022/08/30 06:33:53;;;;;;;;;;;;;;;22.69;49.36;100901.03;4988667;28;6940;-76
2022/08/30 06:36:23;;;;;;;;;;;;;;;22.88;48.92;100904.66;4968970;28;6784;-75
2022/08/30 06:38:52;;;;;;;;;;;;;;;23.04;48.91;100902.97;4966242;28;7223;-74
2022/08/30 06:41:24;;;;;;;;;;;;;;;23.21;48.35;100902.16;4978745;28;7063;-74
2022/08/30 06:43:50;;;;;;;;;;;;;;;23.36;48.01;100901.38;4965256;28;7053;-74
2022/08/30 06:46:26;;;;;;;;;;;;;;;23.48;47.94;100900.53;4984355;28;6780;-74
2022/08/30 06:48:52;;;;;;;;;;;;;;;23.56;47.43;100898.78;4974172;28;6839;-74
2022/08/30 06:51:22;;;;;;;;;;;;;;;23.61;47.10;100904.91;4984876;28;6976;-74
2022/08/30 06:53:49;;;;;;;;;;;;;;;23.62;47.34;100898.81;4988212;28;6792;-74
2022/08/30 06:56:16;;;;;;;;;;;;;;;23.68;47.46;100895.34;4987776;28;6852;-74
2022/08/30 06:58:41;;;;;;;;;;;;;;;23.74;47.23;100899.69;4970966;28;7832;-74
2022/08/30 07:01:14;;;;;;;;;;;;;;;23.79;47.02;100892.75;4980199;28;6776;-74
2022/08/30 07:03:40;;;;;;;;;;;;;;;23.90;47.31;100896.22;4983423;28;6932;-74
2022/08/30 07:06:07;;;;;;;;;;;;;;;24.05;47.01;100897.16;4986461;28;7078;-74
2022/08/30 07:08:34;;;;;;;;;;;;;;;24.19;46.80;100890.16;4987205;28;7292;-74
2022/08/30 07:10:59;;;;;;;;;;;;;;;24.33;46.45;100894.50;4982880;28;6792;-74
2022/08/30 07:13:27;;;;;;;;;;;;;;;24.46;46.71;100885.75;4983858;28;6852;-74
2022/08/30 07:15:52;;;;;;;;;;;;;;;24.63;45.96;100892.72;4983630;28;6883;-74
2022/08/30 07:21:11;;;;;;;;;;;;;;;24.90;45.05;100904.00;4977725;28;7150;-74
2022/08/30 07:23:37;;;;;;;;;;;;;;;25.02;44.79;100896.09;4986439;28;6811;-74
2022/08/30 07:26:10;;;;;;;;;;;;;;;25.10;44.20;100894.28;4965645;28;7202;-74
2022/08/30 07:28:38;;;;;;;;;;;;;;;25.20;44.11;100896.88;4982578;28;6800;-73
2022/08/30 07:31:06;;;;;;;;;;;;;;;25.31;43.67;100897.72;4983620;28;6804;-74
2022/08/30 07:33:35;;;;;;;;;;;;;;;25.42;44.01;100897.63;4990659;28;7199;-74
2022/08/30 07:36:01;;;;;;;;;;;;;;;25.59;43.47;100907.19;4987317;28;6843;-74
2022/08/30 07:38:27;;;;;;;;;;;;;;;25.74;43.02;100895.72;4965813;28;7388;-74
2022/08/30 07:40:53;;;;;;;;;;;;;;;25.90;42.75;100902.59;4986531;28;6832;-75
2022/08/30 07:43:21;;;;;;;;;;;;;;;26.04;42.24;100898.97;4981514;28;6832;-74
2022/08/30 07:45:46;;;;;;;;;;;;;;;26.17;41.88;100887.50;4983762;28;7536;-73
2022/08/30 07:48:12;;;;;;;;;;;;;;;26.27;41.51;100895.31;4985518;28;6784;-74
2022/08/30 07:50:43;;;;;;;;;;;;;;;26.32;41.14;100888.25;4979114;28;6828;-74
2022/08/30 07:53:09;;;;;;;;;;;;;;;26.37;40.84;100896.97;4980551;28;6848;-74
2022/08/30 07:55:35;;;;;;;;;;;;;;;26.45;40.52;100899.53;4982661;28;7146;-74
2022/08/30 07:58:00;;;;;;;;;;;;;;;26.54;40.66;100893.28;4969141;28;7210;-74
2022/08/30 08:00:27;;;;;;;;;;;;;;;26.61;40.52;100894.97;4980529;28;6775;-74
2022/08/30 08:02:53;;;;;;;;;;;;;;;26.68;40.48;100901.91;4983031;28;7274;-74
2022/08/30 08:05:18;;;;;;;;;;;;;;;26.75;40.44;100898.31;4988104;28;6832;-74
2022/08/30 08:07:44;;;;;;;;;;;;;;;26.85;40.11;100898.22;4979613;28;6772;-74
2022/08/30 08:10:10;;;;;;;;;;;;;;;26.96;39.76;100900.72;4980966;28;6832;-74
2022/08/30 08:12:37;;;;;;;;;;;;;;;27.04;39.49;100893.63;4982031;28;6800;-74
2022/08/30 08:15:03;;;;;;;;;;;;;;;27.09;39.55;100901.44;4981122;28;6975;-74
2022/08/30 08:17:29;;;;;;;;;;;;;;;27.18;39.68;100903.97;4984540;28;7259;-74
2022/08/30 08:19:54;;;;;;;;;;;;;;;27.29;39.16;100909.94;4986004;28;6776;-74
2022/08/30 08:22:20;;;;;;;;;;;;;;;27.48;38.94;100914.09;4987496;28;7051;-74
2022/08/30 08:24:46;;;;;;;;;;;;;;;27.62;38.63;100906.88;4982564;28;6984;-75
2022/08/30 08:27:11;;;;;;;;;;;;;;;27.81;38.43;100907.44;4988099;28;7267;-74
2022/08/30 08:29:37;;;;;;;;;;;;;;;28.00;37.77;100901.88;4983038;28;6971;-74
2022/08/30 08:32:03;;;;;;;;;;;;;;;28.16;37.55;100906.91;4983976;28;6964;-74
2022/08/30 08:34:29;;;;;;;;;;;;;;;28.31;37.62;100909.31;4979160;28;7230;-74
2022/08/30 08:36:55;;;;;;;;;;;;;;;28.44;37.23;100906.44;4987777;28;7201;-74
2022/08/30 08:39:20;;;;;;;;;;;;;;;28.56;36.69;100908.81;4984086;28;8914;-75
2022/08/30 08:42:24;;;;;;;;;;;;;;;28.64;36.19;100904.28;4986481;28;9753;-75
2022/08/30 08:45:05;;;;;;;;;;;;;;;28.64;36.50;100899.00;4970002;28;7151;-74
2022/08/30 08:47:58;;;;;;;;;;;;;;;28.65;35.98;100895.47;4988691;28;7833;-74
2022/08/30 08:50:24;;;;;;;;;;;;;;;28.71;36.06;100904.16;4983814;28;7061;-74
2022/08/30 08:53:35;;;;;;;;;;;;;;;28.81;36.15;100911.00;4983266;28;6795;-74
2022/08/30 08:56:13;;;;;;;;;;;;;;;28.94;35.87;100899.31;4987481;28;8467;-74
2022/08/30 08:58:56;;;;;;;;;;;;;;;28.99;35.81;100893.94;4968099;28;6982;-75
2022/08/30 09:01:30;;;;;;;;;;;;;;;29.04;35.55;100904.41;4985176;28;7260;-74
2022/08/30 09:04:03;;;;;;;;;;;;;;;29.03;35.86;100890.34;4979505;28;7856;-75
2022/08/30 09:06:44;;;;;;;;;;;;;;;29.07;35.14;100894.66;4969003;28;7102;-75
2022/08/30 09:09:10;;;;;;;;;;;;;;;29.08;35.42;100892.88;4990342;28;6816;-74
2022/08/30 09:11:38;;;;;;;;;;;;;;;29.10;35.30;100891.06;4984911;28;7188;-74
2022/08/30 09:14:13;;;;;;;;;;;;;;;29.15;35.48;100889.19;4983433;28;6888;-74
2022/08/30 09:17:04;;;;;;;;;;;;;;;29.20;34.68;100887.34;4983854;28;7208;-74
2022/08/30 09:19:36;;;;;;;;;;;;;;;29.20;34.77;100889.09;4976161;28;7018;-74
2022/08/30 09:22:33;;;;;;;;;;;;;;;29.27;34.64;100885.41;4965662;28;7714;-74
2022/08/30 09:25:11;;;;;;;;;;;;;;;29.32;34.76;100890.59;4978710;28;7043;-74
2022/08/30 09:27:43;;;;;;;;;;;;;;;29.34;34.64;100888.78;4987443;28;6812;-74
2022/08/30 09:30:25;;;;;;;;;;;;;;;29.42;35.35;100886.84;4984227;28;7883;-74
2022/08/30 09:33:17;;;;;;;;;;;;;;;29.57;34.26;100884.78;4970848;28;11302;-74
2022/08/30 09:35:50;;;;;;;;;;;;;;;29.71;34.13;100887.94;4990166;28;6803;-74
2022/08/30 09:38:29;;;;;;;;;;;;;;;29.91;33.89;100892.75;4980056;28;7294;-74
2022/08/30 09:41:20;;;;;;;;;;;;;;;30.15;33.57;100887.75;4984274;28;7272;-74
2022/08/30 09:44:10;;;;;;;;;;;;;;;30.62;33.13;100881.22;4976880;28;6839;-74
2022/08/30 09:46:56;;;;;;;;;;;;;;;31.05;32.33;100884.41;4948308;28;7323;-74
2022/08/30 09:49:35;;;;;;;;;;;;;;;31.47;32.22;100887.56;4978755;28;7019;-74
2022/08/30 09:52:17;;;;;;;;;;;;;;;31.68;31.85;100886.88;4984506;28;6800;-74
2022/08/30 09:55:19;;;;;;;;;;;;;;;31.93;31.35;100887.88;4961048;28;7283;-75
2022/08/30 09:58:44;;;;;;;;;;;;;;;32.42;30.86;100885.31;4947974;28;7208;-74
2022/08/30 10:01:18;;;;;;;;;;;;;;;32.64;29.83;100879.19;4961648;28;6828;-74
2022/08/30 10:04:00;;;;;;;;;;;;;;;32.78;29.32;100884.88;4983645;28;7772;-74
2022/08/30 10:07:02;;;;;;;;;;;;;;;33.24;29.47;100881.38;4992488;28;6958;-75
2022/08/30 10:09:48;;;;;;;;;;;;;;;34.00;28.22;100867.69;4943983;28;1069046;-75
2022/08/30 10:12:42;;;;;;;;;;;;;;;34.45;27.69;100879.00;4963575;28;7209;-75
2022/08/30 10:15:35;;;;;;;;;;;;;;;34.52;27.39;100870.75;4982923;28;7775;-75
2022/08/30 10:18:24;;;;;;;;;;;;;;;34.54;26.52;100855.59;4984156;28;7126;-75
2022/08/30 10:21:10;;;;;;;;;;;;;;;34.79;26.05;100859.81;4987858;28;7744;-74
2022/08/30 10:24:03;;;;;;;;;;;;;;;34.90;26.26;100853.00;4983415;28;6800;-75
2022/08/30 10:26:50;;;;;;;;;;;;;;;34.79;25.56;100857.16;4986923;28;7435;-75
2022/08/30 10:29:46;;;;;;;;;;;;;;;34.71;25.56;100866.34;4986600;28;7062;-75
2022/08/30 10:33:14;;;;;;;;;;;;;;;35.03;26.01;100863.94;4980579;28;6974;-74
2022/08/30 10:35:49;;;;;;;;;;;;;;;35.48;25.17;100852.06;4971872;28;7670;-75
2022/08/30 10:38:29;;;;;;;;;;;;;;;35.78;25.35;100856.81;4985986;28;7240;-74
2022/08/30 10:41:27;;;;;;;;;;;;;;;36.04;25.20;100850.16;4987871;28;6987;-75
2022/08/30 10:44:08;;;;;;;;;;;;;;;36.14;24.56;100859.41;4989529;28;7141;-75
2022/08/30 10:46:53;;;;;;;;;;;;;;;36.27;24.90;100856.09;4987778;28;6807;-75
2022/08/30 10:49:25;;;;;;;;;;;;;;;36.53;24.40;100851.16;4976354;28;7894;-75
2022/08/30 10:52:24;;;;;;;;;;;;;;;36.79;23.92;100857.75;4984686;28;6807;-75
2022/08/30 10:55:09;;;;;;;;;;;;;;;37.08;23.48;100854.41;4983483;28;6965;-75
2022/08/30 10:57:34;;;;;;;;;;;;;;;37.56;23.64;100845.47;4965657;28;7327;-75
2022/08/30 11:00:09;;;;;;;;;;;;;;;37.92;23.03;100845.06;4981720;28;6792;-75
2022/08/30 11:03:10;;;;;;;;;;;;;;;37.93;22.19;100849.47;4982773;28;7058;-75
2022/08/30 11:06:08;;;;;;;;;;;;;;;37.73;21.76;100847.16;4979325;28;7260;-75
2022/08/30 11:08:56;;;;;;;;;;;;;;;37.70;22.35;100845.50;4987223;28;7004;-75
2022/08/30 11:11:43;;;;;;;;;;;;;;;37.72;22.21;100850.78;4989334;28;6784;-75
2022/08/30 11:14:16;;;;;;;;;;;;;;;38.04;22.31;100843.47;4969228;28;7257;-75
2022/08/30 11:16:48;;;;;;;;;;;;;;;38.27;21.71;100837.66;4982272;28;6856;-75
2022/08/30 11:19:37;;;;;;;;;;;;;;;38.38;21.85;100837.00;4962895;28;7000;-75
2022/08/30 11:22:31;;;;;;;;;;;;;;;38.42;21.33;100838.50;4972607;28;6803;-76
2022/08/30 11:25:14;;;;;;;;;;;;;;;38.31;21.13;100836.53;4977919;28;7285;-75
2022/08/30 11:27:55;;;;;;;;;;;;;;;37.85;21.63;100840.16;4965384;28;7032;-75
2022/08/30 11:30:23;;;;;;;;;;;;;;;37.37;22.47;100842.03;4980031;28;6816;-74
2022/08/30 11:33:10;;;;;;;;;;;;;;;37.31;22.19;100847.72;4982381;28;6936;-75
2022/08/30 11:35:51;;;;;;;;;;;;;;;37.46;22.32;100842.44;4984049;28;6959;-75
2022/08/30 11:38:38;;;;;;;;;;;;;;;37.64;21.84;100833.38;4969548;28;7030;-75
2022/08/30 11:41:27;;;;;;;;;;;;;;;37.78;22.36;100837.88;4985586;28;8147;-75
2022/08/30 11:43:55;;;;;;;;;;;;;;;38.02;22.03;100831.19;4957350;28;7528;-75
2022/08/30 11:46:27;;;;;;;;;;;;;;;37.92;21.81;100829.03;4982066;28;7174;-75
2022/08/30 11:49:08;;;;;;;;;;;;;;;37.30;21.37;100821.97;4967131;28;6999;-75
2022/08/30 11:52:08;;;;;;;;;;;;;;;36.73;22.30;100825.19;4986834;28;6884;-76
2022/08/30 11:55:17;;;;;;;;;;;;;;;36.59;22.10;100825.97;4983127;28;7365;-75
2022/08/30 11:58:08;;;;;;;;;;;;;;;36.55;22.33;100826.13;4987043;28;7159;-75
2022/08/30 12:00:38;;;;;;;;;;;;;;;36.46;22.27;100820.41;4987354;28;7297;-75
2022/08/30 12:03:32;;;;;;;;;;;;;;;36.19;23.04;100818.28;4986565;28;7016;-74
2022/08/30 12:06:03;;;;;;;;;;;;;;;36.03;23.09;100816.44;4983596;28;6872;-75
2022/08/30 12:08:34;;;;;;;;;;;;;;;36.30;22.78;100815.91;4984713;28;7185;-75
2022/08/30 12:11:11;;;;;;;;;;;;;;;36.57;23.02;100815.38;4983218;28;6974;-74
2022/08/30 12:13:58;;;;;;;;;;;;;;;36.55;22.56;100822.56;4985272;28;7091;-74
2022/08/30 12:19:31;;;;;;;;;;;;;;;36.33;23.01;100815.75;4973043;28;7828;-75
2022/08/30 12:22:05;;;;;;;;;;;;;;;36.25;23.57;100809.97;4964587;28;7759;-75
2022/08/30 12:24:38;;;;;;;;;;;;;;;36.53;23.08;100814.63;4979248;28;8026;-76
2022/08/30 12:27:23;;;;;;;;;;;;;;;36.79;22.80;100811.50;4987117;28;7809;-75
2022/08/30 12:29:58;;;;;;;;;;;;;;;36.87;22.36;100816.41;4985643;28;7245;-76
2022/08/30 12:32:25;;;;;;;;;;;;;;;36.63;22.67;100803.47;4987428;28;6796;-75
2022/08/30 12:34:55;;;;;;;;;;;;;;;36.25;23.25;100812.63;4979533;28;6792;-75
2022/08/30 12:37:27;;;;;;;;;;;;;;;36.08;23.61;100816.22;4974878;28;7602;-75
2022/08/30 12:40:22;;;;;;;;;;;;;;;36.00;22.87;100808.56;4984640;28;6883;-75
2022/08/30 12:42:56;;;;;;;;;;;;;;;35.76;22.86;100811.59;4985193;28;7872;-76
2022/08/30 12:45:41;;;;;;;;;;;;;;;35.72;23.36;100807.34;4969874;28;6808;-75
2022/08/30 12:48:14;;;;;;;;;;;;;;;35.90;22.95;100804.69;4983629;28;6831;-76
2022/08/30 12:50:53;;;;;;;;;;;;;;;36.08;22.61;100808.22;4989756;28;6811;-75
2022/08/30 12:53:28;;;;;;;;;;;;;;;36.13;22.91;100804.34;4976171;28;7012;-75
2022/08/30 12:56:03;;;;;;;;;;;;;;;36.16;22.60;100800.63;4980938;28;7670;-75
2022/08/30 12:58:48;;;;;;;;;;;;;;;36.23;22.73;100793.19;4979416;28;6929;-75
2022/08/30 13:01:32;;;;;;;;;;;;;;;36.32;21.96;100800.69;4976194;28;6804;-79
2022/08/30 13:03:59;;;;;;;;;;;;;;;36.33;22.42;100797.06;4979907;28;7067;-76
2022/08/30 13:06:50;;;;;;;;;;;;;;;36.31;22.55;100790.94;4980365;28;6948;-75
2022/08/30 13:09:32;;;;;;;;;;;;;;;36.31;22.01;100793.59;4978877;28;7772;-75
2022/08/30 13:12:02;;;;;;;;;;;;;;;36.38;22.12;100795.00;4967300;28;7502;-75
2022/08/30 13:14:39;;;;;;;;;;;;;;;36.34;22.00;100788.13;4972347;28;6804;-75
2022/08/30 13:17:22;;;;;;;;;;;;;;;36.35;22.70;100779.19;4970325;28;6812;-76
2022/08/30 13:20:11;;;;;;;;;;;;;;;36.47;22.23;100772.31;4977529;28;6886;-75
2022/08/30 13:22:40;;;;;;;;;;;;;;;36.36;21.89;100775.56;4984975;28;6852;-76